Warning: Javascript must be enabled to use all the features on this page!


Page Loading - Please Wait...

* We've detected you're using a mobile device. Find our Next Generation Station Page here.
Click to hideNews Bulletins

Peak Streamflow for the Nation

USGS 05125550 STONY RIVER NEAR BABBITT, MN

Lake County, Minnesota
Hydrologic Unit Code 09030001
Latitude  47°41'36", Longitude  91°45'38" NAD27
Drainage area 215  square miles
Gage datum 1,564.78 feet above NAVD88
Output formats
Table
Graph
Tab-separated file
peakfq (watstore) format
Reselect output format
Water
Year
Date Gage
Height
(feet)
Stream-
flow
(cfs)
1976 1976-04-19 8.71 2,490
1977 1977-09-10 5.25 601
1978 1978-05-01 6.29 1,130
1979 1979-04-28 7.28 1,630
1980 1980-09-04 5.26 700
1986 1986-05-01 5.87 770
1987 1987-05-24 6.89 1,210
1988 1988-08-17 6.63 1,090
1989 1989-04-28 7.38 1,450
1990 1990-04-30 7.21 1,370
1991 1991-04-10 5.01 457
1992 1992-05-12 6.56 1,060
1993 1993-07-05 6.28 945
1994 1994-06-19 6.76 1,150
1995 1995-07-05 5.84 780
1996 1996-05-02 6.85 1,200
1997 1997-05-08 6.26 930
1998 1998-04-16 6.42 999
1999 1999-07-06 7.16 1,400
2000 2000-05-12 5.75 756
2001 2001-05-03 8.24 2,000
2002 2002-04-23 5.62 688
2003 2003-07-02 4.54 326
2004 2004-05-31 6.09 974
2005 2005-06-20 5.60 695
2006 2006-05-16 6.86 1,250
2007 2007-04-23 5.38 603
2008 2008-04-29 7.38 1,680
2009 2009-04-27 6.04 877
2010 2010-08-02 4.35 271
2011 2011-05-12 5.47 645
2012 2012-06-23 7.58 1,790
2013 2013-05-23 6.50 1,120
2014 2014-05-14 7.15 1,530
2015 2015-06-10 5.24 516
2016 2016-04-23 6.91 1,280
2017 2017-04-24 6.02 868
2018 2018-07-06 5.82 784
2019 2019-04-29 6.86 1,260
2020 2020-05-05 6.28 983
2021 2021-04-16 6.33 1,010